Aérodrome :







RETROUVEZ-NOUS SUR...

 
LOGIN :

S'inscrire | Disclaimer

   EN    FR    IT 

 









Légende :    VFR   VFR Marginal   IFR   IFR Intensif   IFR Très Intensif
Visi : 
Plafond : 
>= 8 km
>= 3000ft
5 à 8 km
1000 à 3000 ft
1500m à 5 km
500 à 1000 ft
800 à 1500m
200 à 500 ft
< 800m
< 200 ft
Symboles :   Orages  Brouillard  Fortes neiges  Fortes précipitations  Vent > 20 kt






- Altitude de l'aérodrome : 129 ft
- Code IATA : YVP


CYVP - Kuujjuak

DERNIER METAR :
  • 090400Z 27007KT 15SM OVC032 14/13 A2958 RMK SC8 INTMT -RA SLP019 DENSITY ALT 500FT

METARs EXPIRÉS :
  • 090300Z 26004KT 220V280 12SM -RA SCT045 BKN076 14/13 A2958 RMK SC3AC4 SLP018 DENSITY ALT 400FT
  • 090200Z 24004KT 12SM -SHRA BKN035 OVC080 14/13 A2957 RMK SC5AC3 CVCTV CLD EMBD SLP015 DENSITY ALT 500FT

TAF TAF CYVP
Valide du 09 à 00h jusqu'au 09 à 12h UTC


082338Z 0900/0912 25007KT P6SM SCT020 BKN050
TEMPO 0900/0905 5SM -SHRA BR OVC020
FM090900 30008KT P6SM BKN015
BECMG 0909/0911 03008KT RMK NXT FCST BY 090600Z
FIR CZUL / Amérique du Nord



MET'MAP, la Météo Aéronautique d'un coup d'oeil ! - Copyright ORBIFLY Décembre 2007 - Disclaimer

ORBIFLY MET'MAP TEAM :

Programmation & Développement : Alexandra Zaïnal
Sur une idée originale de : Baudouin d'Aumeries
Assistance à la programmation : Marc-Olivier Méhu
Soutien technique & logistique : Manuel Goepfert

Contact : metmap@orbifly.com




SOURCES & CREDITS :

   NOAA